Time;durP1;ratioP1;P1;durP2;ratioP2;P2;SDS_P1;SDS_P2;PMS_P1;PMS_P2;Temp;Humidity;BMP_temperature;BMP_pressure;BME280_temperature;BME280_humidity;BME280_pressure;Samples;Min_cycle;Max_cycle;Signal;HPM_P1;HPM_P2
2022/10/21 00:01:48;;;;;;;123.63;90.57;;;16.40;99.90;;;;;;5074343;28;20203;-94
2022/10/21 00:04:19;;;;;;;136.20;93.83;;;16.30;99.90;;;;;;5074006;28;20215;-93
2022/10/21 00:06:50;;;;;;;132.57;93.40;;;16.30;99.90;;;;;;5075606;28;20219;-90
2022/10/21 00:09:21;;;;;;;133.03;95.90;;;16.30;99.90;;;;;;5062435;28;20211;-91
2022/10/21 00:11:53;;;;;;;133.83;95.70;;;16.20;99.90;;;;;;5056885;28;20620;-91
2022/10/21 00:14:25;;;;;;;143.53;104.30;;;16.30;99.90;;;;;;5074282;28;20204;-91
2022/10/21 00:17:01;;;;;;;145.87;107.70;;;16.20;99.90;;;;;;5073681;28;20215;-92
2022/10/21 00:19:33;;;;;;;158.77;113.93;;;16.20;99.90;;;;;;5042708;28;20207;-91
2022/10/21 00:22:04;;;;;;;165.63;124.57;;;16.10;99.90;;;;;;5061991;28;20266;-92
2022/10/21 00:24:37;;;;;;;176.87;127.87;;;16.00;99.90;;;;;;5074968;28;20249;-95
2022/10/21 00:27:08;;;;;;;176.30;125.83;;;16.00;99.90;;;;;;5064626;28;20238;-94
2022/10/21 00:29:39;;;;;;;174.63;125.77;;;16.00;99.90;;;;;;5075134;28;20675;-94
2022/10/21 00:32:13;;;;;;;185.03;130.07;;;16.00;99.90;;;;;;5078458;28;20199;-93
2022/10/21 00:34:45;;;;;;;178.37;128.77;;;16.00;99.90;;;;;;5059313;28;20281;-92
2022/10/21 00:37:17;;;;;;;177.40;125.27;;;16.10;99.90;;;;;;5073258;28;20195;-94
2022/10/21 00:39:49;;;;;;;175.80;126.47;;;16.10;99.90;;;;;;5058079;28;20204;-93
2022/10/21 00:42:23;;;;;;;182.00;129.73;;;16.00;99.90;;;;;;5073368;28;20216;-93
2022/10/21 00:45:20;;;;;;;179.33;128.03;;;16.00;99.90;;;;;;5087549;28;20203;-93
2022/10/21 00:47:56;;;;;;;184.83;133.03;;;15.90;99.90;;;;;;5081929;28;20279;-93
2022/10/21 00:50:34;;;;;;;190.97;134.40;;;15.90;99.90;;;;;;5091615;28;20200;-92
2022/10/21 00:53:15;;;;;;;187.50;132.40;;;15.90;99.90;;;;;;5066753;28;20283;-92
2022/10/21 00:55:51;;;;;;;187.57;133.70;;;16.00;99.90;;;;;;5100968;28;20290;-92
2022/10/21 00:58:27;;;;;;;184.80;129.97;;;15.80;99.90;;;;;;5092959;28;20278;-93
2022/10/21 01:01:00;;;;;;;189.43;132.80;;;15.80;99.90;;;;;;5077364;28;20211;-92
2022/10/21 01:03:35;;;;;;;179.87;130.80;;;15.80;99.90;;;;;;5093726;28;20219;-95
2022/10/21 01:06:10;;;;;;;182.37;129.53;;;15.80;99.90;;;;;;5110810;28;20221;-90
2022/10/21 01:08:42;;;;;;;175.37;126.67;;;15.80;99.90;;;;;;5082624;28;20237;-91
2022/10/21 01:11:16;;;;;;;172.53;124.83;;;15.80;99.90;;;;;;5077820;28;20199;-93
2022/10/21 01:14:04;;;;;;;181.60;128.07;;;15.70;99.90;;;;;;5076365;28;20554;-92
2022/10/21 01:16:46;;;;;;;184.53;130.37;;;15.70;99.90;;;;;;5094077;28;20211;-92
2022/10/21 01:19:39;;;;;;;183.47;129.90;;;15.70;99.90;;;;;;5063341;28;20199;-94
2022/10/21 01:22:28;;;;;;;173.27;127.43;;;15.70;99.90;;;;;;5064524;28;20700;-92
2022/10/21 01:25:21;;;;;;;175.60;125.27;;;15.70;99.90;;;;;;5064018;28;20200;-92
2022/10/21 01:27:58;;;;;;;176.47;126.90;;;15.70;99.90;;;;;;5060723;28;20243;-92
2022/10/21 01:30:37;;;;;;;175.70;126.70;;;15.70;99.90;;;;;;5062953;28;20210;-92
2022/10/21 01:33:42;;;;;;;182.77;131.03;;;15.70;99.90;;;;;;5072551;28;20613;-92
2022/10/21 01:36:32;;;;;;;182.30;128.17;;;15.60;99.90;;;;;;5069969;28;20219;-92
2022/10/21 01:39:16;;;;;;;188.00;127.07;;;15.60;99.90;;;;;;5050715;28;20204;-94
2022/10/21 01:41:55;;;;;;;175.77;123.63;;;15.60;99.90;;;;;;5089255;28;20275;-96
2022/10/21 01:44:35;;;;;;;176.73;127.27;;;15.50;99.90;;;;;;5087139;28;20202;-96
2022/10/21 01:47:17;;;;;;;175.70;125.20;;;15.50;99.90;;;;;;5079482;28;20196;-94
2022/10/21 01:49:53;;;;;;;175.73;124.87;;;15.50;99.90;;;;;;5089040;28;20220;-95
2022/10/21 01:52:25;;;;;;;175.37;124.37;;;15.50;99.90;;;;;;5077002;28;20252;-96
2022/10/21 01:55:01;;;;;;;182.57;125.80;;;15.50;99.90;;;;;;5084947;28;21757;-95
2022/10/21 01:57:39;;;;;;;171.73;121.00;;;15.50;99.90;;;;;;5084807;28;20210;-94
2022/10/21 02:00:11;;;;;;;174.30;124.23;;;15.50;99.90;;;;;;5052687;28;20199;-94
2022/10/21 02:02:49;;;;;;;171.43;123.50;;;15.50;99.90;;;;;;5058860;28;20208;-94
2022/10/21 02:05:22;;;;;;;180.80;127.33;;;15.50;99.90;;;;;;5078013;28;20266;-95
2022/10/21 02:07:55;;;;;;;177.73;124.77;;;15.50;99.90;;;;;;5077806;28;20294;-94
2022/10/21 02:10:30;;;;;;;179.10;124.77;;;15.50;99.90;;;;;;5060463;28;20223;-94
2022/10/21 02:13:04;;;;;;;176.67;125.10;;;15.50;99.90;;;;;;5076937;28;20219;-95
2022/10/21 02:15:38;;;;;;;178.23;124.50;;;15.50;99.90;;;;;;5073108;28;20711;-96
2022/10/21 02:18:19;;;;;;;175.20;122.57;;;15.50;99.90;;;;;;5077745;28;20212;-95
2022/10/21 02:20:56;;;;;;;171.10;122.33;;;15.50;99.90;;;;;;5074895;28;20247;-95
2022/10/21 02:23:34;;;;;;;173.33;122.03;;;15.50;99.90;;;;;;5089875;28;20208;-96
2022/10/21 02:26:06;;;;;;;177.00;123.83;;;15.50;99.90;;;;;;5083549;28;20248;-94
2022/10/21 02:28:37;;;;;;;176.90;123.17;;;15.40;99.90;;;;;;5091717;28;20227;-95
2022/10/21 02:31:20;;;;;;;179.13;122.27;;;15.40;99.90;;;;;;5082481;28;20196;-94
2022/10/21 02:34:05;;;;;;;171.77;123.30;;;15.30;99.90;;;;;;5082076;28;20579;-95
2022/10/21 02:36:46;;;;;;;164.30;121.70;;;15.30;99.90;;;;;;5077971;28;20682;-95
2022/10/21 02:39:24;;;;;;;176.93;120.50;;;15.30;99.90;;;;;;5078175;28;20204;-95
2022/10/21 02:41:57;;;;;;;172.00;118.63;;;15.30;99.90;;;;;;5081910;28;20268;-91
2022/10/21 02:44:29;;;;;;;176.00;120.03;;;15.30;99.90;;;;;;5056105;28;20196;-96
2022/10/21 02:47:01;;;;;;;171.30;123.03;;;15.30;99.90;;;;;;5085373;28;20207;-95
2022/10/21 02:49:37;;;;;;;177.00;122.13;;;15.30;99.90;;;;;;5074352;28;20314;-96
2022/10/21 02:52:09;;;;;;;177.40;124.57;;;15.20;99.90;;;;;;5092760;28;20285;-96
2022/10/21 02:54:42;;;;;;;184.33;128.50;;;15.10;99.90;;;;;;5073368;28;20694;-95
2022/10/21 02:57:13;;;;;;;181.53;125.70;;;15.10;99.90;;;;;;5063065;28;20215;-96
2022/10/21 02:59:45;;;;;;;171.90;122.37;;;15.10;99.90;;;;;;5082351;28;20196;-96
2022/10/21 03:02:16;;;;;;;176.13;124.67;;;15.10;99.90;;;;;;5064168;28;20199;-96
2022/10/21 03:04:49;;;;;;;168.50;121.10;;;15.10;99.90;;;;;;5080135;28;20211;-96
2022/10/21 03:07:24;;;;;;;163.30;117.77;;;15.10;99.90;;;;;;5060983;28;20591;-96
2022/10/21 03:09:56;;;;;;;160.43;117.53;;;15.10;99.90;;;;;;5057314;28;20272;-94
2022/10/21 03:12:28;;;;;;;168.30;119.63;;;15.00;99.90;;;;;;5076394;28;20664;-96
2022/10/21 03:15:00;;;;;;;172.10;123.63;;;15.00;99.90;;;;;;5077506;28;20207;-96
2022/10/21 03:17:33;;;;;;;170.10;121.10;;;15.00;99.90;;;;;;5085436;28;20210;-96
2022/10/21 03:20:09;;;;;;;170.60;121.10;;;14.90;99.90;;;;;;5089661;28;20211;-96
2022/10/21 03:22:42;;;;;;;166.53;120.73;;;14.90;99.90;;;;;;5066639;28;20208;-96
2022/10/21 03:25:15;;;;;;;167.43;121.33;;;14.90;99.90;;;;;;5078105;28;20204;-96
2022/10/21 03:27:50;;;;;;;168.67;121.63;;;14.80;99.90;;;;;;5083607;28;20293;-96
2022/10/21 03:30:34;;;;;;;175.97;119.57;;;14.80;99.90;;;;;;5085207;28;20254;-96
2022/10/21 03:33:09;;;;;;;167.90;119.57;;;14.70;99.90;;;;;;5073829;28;20210;-96
2022/10/21 03:35:45;;;;;;;173.73;120.97;;;14.70;99.90;;;;;;5071946;28;20670;-96
2022/10/21 03:38:17;;;;;;;169.73;118.43;;;14.60;99.90;;;;;;5090857;28;20207;-96
2022/10/21 03:40:49;;;;;;;170.67;118.30;;;14.60;99.90;;;;;;5088845;28;20215;-96
2022/10/21 03:43:20;;;;;;;166.93;118.10;;;14.70;99.90;;;;;;5090411;28;20195;-95
2022/10/21 03:45:52;;;;;;;164.20;116.93;;;14.70;99.90;;;;;;5082495;28;20210;-96
2022/10/21 03:48:24;;;;;;;158.93;114.37;;;14.70;99.90;;;;;;5081194;28;20287;-96
2022/10/21 03:51:00;;;;;;;162.23;114.13;;;14.80;99.90;;;;;;5079093;28;20208;-96
2022/10/21 03:53:31;;;;;;;157.07;112.67;;;14.80;99.90;;;;;;5061940;28;20215;-96
2022/10/21 03:56:17;;;;;;;152.63;110.30;;;14.80;99.90;;;;;;5082924;28;20287;-95
2022/10/21 03:58:48;;;;;;;151.00;109.93;;;14.80;99.90;;;;;;5075464;28;20196;-96
2022/10/21 04:01:25;;;;;;;159.73;112.77;;;14.80;99.90;;;;;;5076421;28;20215;-96
2022/10/21 04:03:57;;;;;;;154.23;109.90;;;14.80;99.90;;;;;;5077597;28;20272;-96
2022/10/21 04:06:40;;;;;;;149.23;107.53;;;14.80;99.90;;;;;;5080872;28;20282;-96
2022/10/21 04:09:13;;;;;;;140.83;104.00;;;14.80;99.90;;;;;;5080592;28;20230;-95
2022/10/21 04:11:45;;;;;;;143.17;102.30;;;14.80;99.90;;;;;;5068618;28;20208;-95
2022/10/21 04:14:16;;;;;;;142.37;101.57;;;14.80;99.90;;;;;;5062386;28;20673;-95
2022/10/21 04:16:48;;;;;;;101.27;72.83;;;14.80;99.90;;;;;;5076018;28;20214;-95
2022/10/21 04:19:31;;;;;;;95.73;71.13;;;14.80;99.90;;;;;;5078254;28;20746;-95
2022/10/21 04:22:07;;;;;;;96.30;69.03;;;14.70;99.90;;;;;;5075171;28;20215;-96
2022/10/21 04:24:40;;;;;;;91.50;67.07;;;14.70;99.90;;;;;;5076712;28;20204;-96
2022/10/21 04:27:11;;;;;;;92.17;66.47;;;14.70;99.90;;;;;;5077601;28;20214;-94
2022/10/21 04:29:45;;;;;;;87.00;63.30;;;14.70;99.90;;;;;;5073798;28;20235;-96
2022/10/21 04:32:16;;;;;;;93.53;65.93;;;14.70;99.90;;;;;;5072574;28;20204;-96
2022/10/21 04:34:49;;;;;;;90.70;67.20;;;14.70;99.90;;;;;;5071286;28;20210;-96
2022/10/21 04:37:23;;;;;;;97.27;67.37;;;14.70;99.90;;;;;;5059787;28;20267;-96
2022/10/21 04:39:57;;;;;;;94.80;67.60;;;14.70;99.90;;;;;;5076193;28;20290;-96
2022/10/21 04:42:35;;;;;;;90.70;66.63;;;14.70;99.90;;;;;;5077400;28;20647;-96
2022/10/21 04:45:08;;;;;;;91.13;69.07;;;14.60;99.90;;;;;;5080712;28;20648;-96
2022/10/21 04:47:39;;;;;;;100.73;71.10;;;14.60;99.90;;;;;;5079531;28;20302;-96
2022/10/21 04:50:12;;;;;;;99.57;71.43;;;14.60;99.90;;;;;;5081469;28;20223;-95
2022/10/21 04:52:48;;;;;;;93.30;68.57;;;14.50;99.90;;;;;;5078348;28;20203;-96
2022/10/21 04:55:19;;;;;;;99.53;71.27;;;14.50;99.90;;;;;;5084031;28;20214;-96
2022/10/21 04:57:51;;;;;;;94.23;68.37;;;14.60;99.90;;;;;;5077689;28;20247;-96
2022/10/21 05:00:23;;;;;;;100.80;73.60;;;14.60;99.90;;;;;;5094714;28;20207;-96
2022/10/21 05:02:55;;;;;;;98.97;72.63;;;14.60;99.90;;;;;;5062569;28;20215;-96
2022/10/21 05:05:28;;;;;;;106.17;76.93;;;14.60;99.90;;;;;;5085237;28;20213;-96
2022/10/21 05:08:05;;;;;;;104.57;77.67;;;14.60;99.90;;;;;;5083459;28;20207;-96
2022/10/21 05:10:41;;;;;;;106.37;77.60;;;14.60;99.90;;;;;;5081462;28;20243;-96
2022/10/21 05:13:13;;;;;;;109.30;77.80;;;14.50;99.90;;;;;;5076917;28;20207;-95
2022/10/21 05:15:47;;;;;;;111.10;78.87;;;14.50;99.90;;;;;;5086550;28;20214;-96
2022/10/21 05:18:19;;;;;;;114.67;79.17;;;14.50;99.90;;;;;;5047910;28;20573;-96
2022/10/21 05:20:55;;;;;;;115.37;80.33;;;14.50;99.90;;;;;;5087123;28;20212;-96
2022/10/21 05:23:29;;;;;;;98.67;70.90;;;14.40;99.90;;;;;;5081119;28;20203;-96
2022/10/21 05:26:02;;;;;;;99.40;69.50;;;14.40;99.90;;;;;;5078457;28;20208;-96
2022/10/21 05:28:33;;;;;;;88.37;63.10;;;14.40;99.90;;;;;;5070704;28;20211;-96
2022/10/21 05:31:04;;;;;;;86.80;59.10;;;14.30;99.90;;;;;;5081427;28;20246;-96
2022/10/21 05:33:36;;;;;;;81.73;55.37;;;14.30;99.90;;;;;;5082285;28;20544;-96
2022/10/21 05:36:14;;;;;;;78.13;57.10;;;14.20;99.90;;;;;;5083920;28;20237;-96
2022/10/21 05:41:56;;;;;;;74.47;49.07;;;14.20;99.90;;;;;;5076862;28;20298;-96
2022/10/21 05:44:28;;;;;;;69.67;47.20;;;14.10;99.90;;;;;;5061792;28;20208;-96
2022/10/21 05:47:02;;;;;;;63.57;46.17;;;14.10;99.90;;;;;;5080767;28;20218;-96
2022/10/21 05:49:34;;;;;;;65.57;46.20;;;14.10;99.90;;;;;;5063333;28;20200;-96
2022/10/21 05:52:07;;;;;;;60.83;43.37;;;14.10;99.90;;;;;;5079940;28;20269;-96
2022/10/21 05:54:42;;;;;;;59.73;41.60;;;14.10;99.90;;;;;;5081845;28;20206;-96
2022/10/21 05:57:16;;;;;;;58.50;41.17;;;14.10;99.90;;;;;;5067049;28;20206;-96
2022/10/21 05:59:49;;;;;;;58.00;42.50;;;14.10;99.90;;;;;;5063139;28;20221;-96
2022/10/21 06:02:21;;;;;;;55.63;40.90;;;14.10;99.90;;;;;;5075927;28;20213;-95
2022/10/21 06:04:53;;;;;;;59.57;43.20;;;14.00;99.90;;;;;;5032015;28;20644;-96
2022/10/21 06:07:26;;;;;;;57.17;39.90;;;14.00;99.90;;;;;;5059654;28;20655;-96
2022/10/21 06:10:01;;;;;;;53.13;39.70;;;14.00;99.90;;;;;;5059091;28;20664;-96
2022/10/21 06:12:34;;;;;;;57.03;40.00;;;14.00;99.90;;;;;;5059100;28;20626;-95
2022/10/21 06:15:08;;;;;;;58.27;41.57;;;14.10;99.90;;;;;;5077968;28;20296;-96
2022/10/21 06:17:39;;;;;;;55.13;38.77;;;14.10;99.90;;;;;;5064993;28;20211;-96
2022/10/21 06:20:12;;;;;;;56.87;40.40;;;14.10;99.90;;;;;;5081856;28;20215;-96
2022/10/21 06:22:45;;;;;;;52.30;38.37;;;14.20;99.90;;;;;;5077414;28;20199;-96
2022/10/21 06:25:23;;;;;;;53.47;38.57;;;14.20;99.90;;;;;;5061706;28;20208;-95
2022/10/21 06:27:54;;;;;;;55.07;39.10;;;14.20;99.90;;;;;;5064021;28;20654;-96
2022/10/21 06:30:27;;;;;;;53.27;37.63;;;14.20;99.90;;;;;;5062310;28;20241;-95
2022/10/21 06:32:58;;;;;;;51.17;36.90;;;14.20;99.90;;;;;;5077353;28;20230;-96
2022/10/21 06:35:29;;;;;;;45.70;33.17;;;14.20;99.90;;;;;;5086591;28;20203;-96
2022/10/21 06:38:00;;;;;;;34.60;24.67;;;14.20;99.90;;;;;;5066028;28;20270;-96
2022/10/21 06:40:36;;;;;;;28.40;20.23;;;14.10;99.90;;;;;;5083367;28;20255;-96
2022/10/21 06:43:08;;;;;;;28.47;20.17;;;14.00;99.90;;;;;;5085957;28;20207;-96
2022/10/21 06:45:42;;;;;;;26.50;16.60;;;13.90;99.90;;;;;;5070123;28;20264;-96
2022/10/21 06:48:17;;;;;;;18.87;12.20;;;13.90;99.90;;;;;;5069542;28;20207;-96
2022/10/21 06:50:49;;;;;;;17.57;11.20;;;13.90;99.90;;;;;;5083183;28;20334;-96
2022/10/21 06:53:22;;;;;;;17.80;10.80;;;13.90;99.90;;;;;;5048910;28;20203;-96
2022/10/21 06:56:06;;;;;;;13.47;8.80;;;13.90;99.90;;;;;;5073338;28;20228;-96
2022/10/21 06:58:42;;;;;;;11.53;8.47;;;13.80;99.90;;;;;;5080676;28;20211;-96
2022/10/21 07:01:19;;;;;;;11.63;7.93;;;13.80;99.90;;;;;;5082511;28;20273;-96
2022/10/21 07:04:12;;;;;;;10.70;6.80;;;13.80;99.90;;;;;;5071308;28;20270;-96
2022/10/21 07:06:45;;;;;;;11.70;7.37;;;13.80;99.90;;;;;;5081063;28;20287;-96
2022/10/21 07:09:17;;;;;;;12.17;7.10;;;13.80;99.90;;;;;;5073820;28;20752;-96
2022/10/21 07:11:51;;;;;;;13.77;7.33;;;13.80;99.90;;;;;;5090940;28;20280;-96
2022/10/21 07:14:25;;;;;;;9.97;6.23;;;13.70;99.90;;;;;;5078530;28;20213;-96
2022/10/21 07:16:59;;;;;;;10.53;6.13;;;13.70;99.90;;;;;;5090544;28;20219;-95
2022/10/21 07:19:30;;;;;;;10.83;6.40;;;13.60;99.90;;;;;;5094061;28;20258;-96
2022/10/21 07:22:02;;;;;;;8.83;5.70;;;13.60;99.90;;;;;;5079638;28;20261;-96
2022/10/21 07:24:33;;;;;;;8.33;5.90;;;13.70;99.90;;;;;;5092923;28;20238;-96
2022/10/21 07:27:06;;;;;;;9.00;5.57;;;13.50;99.90;;;;;;5097628;28;20240;-95
2022/10/21 07:29:38;;;;;;;8.40;5.90;;;13.50;99.90;;;;;;5096784;28;20183;-96
2022/10/21 07:32:11;;;;;;;8.73;6.33;;;13.50;99.90;;;;;;5094262;28;20235;-94
2022/10/21 07:34:42;;;;;;;10.43;6.30;;;13.50;99.90;;;;;;5084256;28;20649;-95
2022/10/21 07:37:13;;;;;;;8.07;5.30;;;13.40;99.90;;;;;;5078656;28;20208;-95
2022/10/21 07:39:45;;;;;;;9.43;5.37;;;13.40;99.90;;;;;;5077675;28;20203;-96
2022/10/21 07:42:20;;;;;;;8.67;4.93;;;13.40;99.90;;;;;;5076292;28;20581;-95
2022/10/21 07:44:58;;;;;;;8.03;4.83;;;13.40;99.90;;;;;;5079042;28;20217;-96
2022/10/21 07:47:31;;;;;;;9.43;4.80;;;13.20;99.90;;;;;;5081785;28;21211;-95
2022/10/21 07:50:03;;;;;;;7.50;4.23;;;13.10;99.90;;;;;;5060937;28;20214;-94
2022/10/21 07:52:37;;;;;;;5.90;3.40;;;13.00;99.90;;;;;;5073675;28;20235;-96
2022/10/21 07:55:19;;;;;;;8.00;3.30;;;12.90;99.90;;;;;;5075086;28;20663;-96
2022/10/21 07:57:55;;;;;;;7.37;3.47;;;12.90;99.90;;;;;;5076919;28;20265;-94
2022/10/21 08:00:27;;;;;;;7.97;3.40;;;12.90;99.90;;;;;;5063011;28;20203;-96
2022/10/21 08:02:59;;;;;;;5.10;2.93;;;12.80;99.90;;;;;;5089276;28;20656;-96
2022/10/21 08:05:33;;;;;;;4.57;2.87;;;12.80;99.90;;;;;;5063634;28;20207;-96
2022/10/21 08:08:06;;;;;;;6.40;3.33;;;12.70;99.90;;;;;;5080544;28;20219;-96
2022/10/21 08:10:42;;;;;;;6.10;3.10;;;12.70;99.90;;;;;;5082476;28;20207;-96
2022/10/21 08:13:16;;;;;;;4.97;2.70;;;12.60;99.90;;;;;;5072645;28;20276;-95
2022/10/21 08:15:51;;;;;;;4.53;2.50;;;12.50;99.90;;;;;;5059195;28;20238;-96
2022/10/21 08:18:25;;;;;;;5.03;1.93;;;12.40;99.90;;;;;;5058231;28;20203;-96
2022/10/21 08:20:57;;;;;;;3.53;2.10;;;12.30;99.90;;;;;;5060118;28;20607;-96
2022/10/21 08:23:28;;;;;;;7.97;2.30;;;12.30;99.90;;;;;;5056884;28;20208;-96
2022/10/21 08:26:05;;;;;;;6.27;2.30;;;12.20;99.90;;;;;;5077302;28;20222;-96
2022/10/21 08:28:42;;;;;;;6.70;2.37;;;12.10;99.90;;;;;;5078533;28;20223;-96
2022/10/21 08:31:16;;;;;;;4.07;1.97;;;12.00;99.90;;;;;;5067576;28;20244;-95
2022/10/21 08:33:47;;;;;;;2.40;1.67;;;12.00;99.90;;;;;;5071233;28;20207;-96
2022/10/21 08:36:21;;;;;;;5.40;1.63;;;12.00;99.90;;;;;;5071360;28;20223;-96
2022/10/21 08:38:53;;;;;;;5.83;2.00;;;12.00;99.90;;;;;;5070964;28;20210;-96
2022/10/21 08:41:50;;;;;;;5.67;2.10;;;11.90;99.90;;;;;;5060186;28;20210;-96
2022/10/21 08:44:34;;;;;;;4.47;1.83;;;11.90;99.90;;;;;;5065067;28;20219;-95
2022/10/21 08:47:14;;;;;;;5.87;2.07;;;12.00;99.90;;;;;;5078394;28;20290;-95
2022/10/21 08:49:56;;;;;;;6.30;1.93;;;12.00;99.90;;;;;;5080465;28;20211;-95
2022/10/21 08:52:37;;;;;;;5.23;2.03;;;12.00;99.90;;;;;;5099396;28;20227;-95
2022/10/21 08:55:15;;;;;;;5.33;2.17;;;12.00;99.90;;;;;;5083873;28;20237;-95
2022/10/21 08:57:49;;;;;;;6.40;1.87;;;12.10;99.90;;;;;;5083544;28;20214;-96
2022/10/21 09:00:27;;;;;;;5.00;2.17;;;12.10;99.90;;;;;;5089939;28;20207;-95
2022/10/21 09:03:11;;;;;;;4.37;1.87;;;12.10;99.90;;;;;;5069834;28;20200;-96
2022/10/21 09:06:14;;;;;;;5.87;2.10;;;12.10;99.90;;;;;;5069616;28;20204;-96
2022/10/21 09:08:56;;;;;;;7.57;2.00;;;12.10;99.90;;;;;;5077061;28;20206;-95
2022/10/21 09:11:45;;;;;;;5.70;2.23;;;12.20;99.90;;;;;;5088255;28;20204;-96
2022/10/21 09:14:48;;;;;;;4.80;1.93;;;12.20;99.90;;;;;;5077899;28;20204;-96
2022/10/21 09:17:42;;;;;;;5.87;1.97;;;12.20;99.90;;;;;;5078187;28;20219;-94
2022/10/21 09:20:27;;;;;;;7.03;2.17;;;12.20;99.90;;;;;;5076702;28;20212;-96
2022/10/21 09:23:12;;;;;;;3.90;2.00;;;12.00;99.90;;;;;;5081432;28;20212;-96
2022/10/21 09:25:54;;;;;;;7.07;2.13;;;12.00;99.90;;;;;;5065203;28;20613;-94
2022/10/21 09:28:27;;;;;;;4.63;1.80;;;12.00;99.90;;;;;;5040039;28;20216;-96
2022/10/21 09:31:01;;;;;;;6.97;2.30;;;11.90;99.90;;;;;;5068761;28;20195;-96
2022/10/21 09:33:37;;;;;;;4.53;2.10;;;11.90;99.90;;;;;;5078353;28;20703;-96
2022/10/21 09:36:14;;;;;;;8.20;2.17;;;11.90;99.90;;;;;;5061976;28;20564;-96
2022/10/21 09:38:51;;;;;;;6.37;2.00;;;11.90;99.90;;;;;;5078900;28;20211;-96
2022/10/21 09:41:25;;;;;;;7.63;2.40;;;11.90;99.90;;;;;;5078925;28;20208;-96
2022/10/21 09:44:01;;;;;;;5.43;1.80;;;11.80;99.90;;;;;;5091642;28;20207;-96
2022/10/21 09:46:32;;;;;;;6.93;2.40;;;11.70;99.90;;;;;;5093722;28;20231;-96
2022/10/21 09:49:06;;;;;;;6.83;1.83;;;11.70;99.90;;;;;;5079339;28;20211;-95
2022/10/21 09:52:01;;;;;;;7.33;2.80;;;11.70;99.90;;;;;;5077470;28;20203;-96
2022/10/21 09:54:36;;;;;;;5.30;2.00;;;11.70;99.90;;;;;;5053559;28;20212;-95
2022/10/21 09:57:14;;;;;;;6.67;2.33;;;11.70;99.90;;;;;;5057913;28;20208;-96
2022/10/21 09:59:54;;;;;;;6.77;2.30;;;11.70;99.90;;;;;;5057540;28;20216;-96
2022/10/21 10:02:32;;;;;;;5.93;2.40;;;11.70;99.90;;;;;;5053165;28;20253;-96
2022/10/21 10:05:36;;;;;;;5.73;2.20;;;11.70;99.90;;;;;;5077543;28;20215;-96
2022/10/21 10:08:28;;;;;;;8.93;2.20;;;11.80;99.90;;;;;;5077760;28;20318;-95
2022/10/21 10:11:12;;;;;;;7.00;2.23;;;11.70;99.90;;;;;;5077870;28;20286;-95
2022/10/21 10:13:46;;;;;;;6.50;2.27;;;11.80;99.90;;;;;;5076608;28;20289;-95
2022/10/21 10:16:25;;;;;;;7.40;2.00;;;11.80;99.90;;;;;;5093419;28;20203;-96
2022/10/21 10:19:18;;;;;;;8.50;2.67;;;11.80;99.90;;;;;;5067359;28;20517;-96
2022/10/21 10:22:10;;;;;;;6.37;1.83;;;11.80;99.90;;;;;;5040059;28;20294;-94
2022/10/21 10:24:42;;;;;;;7.30;1.80;;;11.70;99.90;;;;;;5046942;28;20218;-96
2022/10/21 10:27:18;;;;;;;8.67;2.50;;;11.60;99.90;;;;;;5059807;28;20208;-96
2022/10/21 10:29:56;;;;;;;12.67;2.30;;;11.60;99.90;;;;;;5088094;28;20309;-96
2022/10/21 10:32:33;;;;;;;8.47;2.27;;;11.50;99.90;;;;;;5064610;28;20643;-96
2022/10/21 10:35:07;;;;;;;11.37;2.63;;;11.50;99.90;;;;;;5057898;28;20660;-96
2022/10/21 10:37:40;;;;;;;8.33;2.40;;;11.50;99.90;;;;;;5057946;28;20208;-96
2022/10/21 10:40:23;;;;;;;9.00;2.83;;;11.50;99.90;;;;;;5070959;28;20211;-96
2022/10/21 10:43:04;;;;;;;12.33;2.20;;;11.40;99.90;;;;;;5072735;28;20211;-96
2022/10/21 10:45:36;;;;;;;6.60;2.30;;;11.40;99.90;;;;;;5072495;28;20273;-96
2022/10/21 10:48:08;;;;;;;9.67;2.43;;;11.40;99.90;;;;;;5097587;28;20183;-96
2022/10/21 10:50:44;;;;;;;8.93;2.50;;;11.30;99.90;;;;;;5089861;28;20214;-96
2022/10/21 10:53:30;;;;;;;9.03;2.40;;;11.40;99.90;;;;;;5077638;28;20254;-96
2022/10/21 10:56:22;;;;;;;7.37;2.03;;;11.30;99.90;;;;;;5077939;28;20211;-96
2022/10/21 10:58:59;;;;;;;10.53;2.80;;;11.40;99.90;;;;;;5080135;28;20222;-96
2022/10/21 11:01:38;;;;;;;9.37;2.37;;;11.40;99.90;;;;;;5078613;28;20215;-96
2022/10/21 11:04:17;;;;;;;10.07;2.80;;;11.40;99.90;;;;;;5071119;28;20208;-94
2022/10/21 11:06:59;;;;;;;8.90;2.83;;;11.40;99.90;;;;;;5060608;28;20198;-96
2022/10/21 11:09:34;;;;;;;8.93;2.63;;;11.40;99.90;;;;;;5066773;28;20213;-96
2022/10/21 11:12:12;;;;;;;10.33;2.73;;;11.30;99.90;;;;;;5095469;28;20201;-96
2022/10/21 11:14:45;;;;;;;12.60;2.87;;;11.20;99.90;;;;;;5097186;28;20218;-96
2022/10/21 11:17:21;;;;;;;15.40;2.80;;;11.20;99.90;;;;;;5058577;28;20661;-95
2022/10/21 11:19:59;;;;;;;9.33;2.40;;;11.20;99.90;;;;;;5083021;28;20206;-96
2022/10/21 11:22:44;;;;;;;12.50;2.73;;;11.10;99.90;;;;;;5079146;28;20232;-96
2022/10/21 11:25:26;;;;;;;10.63;3.10;;;11.20;99.90;;;;;;5081074;28;20203;-95
2022/10/21 11:28:17;;;;;;;7.63;2.17;;;11.30;99.90;;;;;;5078870;28;20239;-96
2022/10/21 11:31:10;;;;;;;12.50;3.23;;;11.20;99.90;;;;;;5076155;28;20210;-95
2022/10/21 11:33:47;;;;;;;12.80;3.20;;;11.20;99.90;;;;;;5077193;28;20242;-96
2022/10/21 11:36:27;;;;;;;13.23;3.13;;;11.20;99.90;;;;;;5056724;28;20207;-95
2022/10/21 11:39:31;;;;;;;12.53;2.73;;;11.30;99.90;;;;;;5056486;28;20216;-95
2022/10/21 11:42:14;;;;;;;9.33;2.57;;;11.20;99.90;;;;;;5056016;28;20204;-96
2022/10/21 11:45:14;;;;;;;11.90;2.57;;;11.30;99.90;;;;;;5056422;28;20209;-96
2022/10/21 11:47:51;;;;;;;9.90;2.50;;;11.30;99.90;;;;;;5075549;28;20214;-95
2022/10/21 11:50:31;;;;;;;13.27;2.90;;;11.40;99.90;;;;;;5075745;28;20210;-96
2022/10/21 11:53:26;;;;;;;10.10;2.77;;;11.40;99.90;;;;;;5089245;28;20242;-95
2022/10/21 11:56:07;;;;;;;12.23;3.23;;;11.30;99.90;;;;;;5075860;28;20238;-96
2022/10/21 11:58:50;;;;;;;14.47;2.47;;;11.30;99.90;;;;;;5076671;28;20207;-96
2022/10/21 12:01:38;;;;;;;12.57;2.57;;;11.20;99.90;;;;;;5085673;28;20207;-96
2022/10/21 12:04:29;;;;;;;14.03;3.17;;;11.20;99.90;;;;;;5097336;28;20285;-95
2022/10/21 12:07:15;;;;;;;15.43;3.73;;;11.10;99.90;;;;;;5058923;28;20220;-95
2022/10/21 12:09:54;;;;;;;14.03;3.43;;;11.10;99.90;;;;;;5066186;28;20214;-96
2022/10/21 12:12:34;;;;;;;15.97;3.50;;;11.10;99.90;;;;;;5057726;28;20234;-96
2022/10/21 12:15:17;;;;;;;9.90;3.20;;;11.10;99.90;;;;;;5090537;28;20237;-95
2022/10/21 12:17:50;;;;;;;13.47;2.50;;;11.20;99.90;;;;;;5076363;28;20274;-96
2022/10/21 12:20:24;;;;;;;15.93;3.27;;;11.20;99.90;;;;;;5075650;28;20216;-95
2022/10/21 12:23:00;;;;;;;16.80;3.70;;;11.10;99.90;;;;;;5075773;28;20210;-96
2022/10/21 12:25:42;;;;;;;15.10;2.90;;;11.10;99.90;;;;;;5077182;28;20281;-96
2022/10/21 12:28:20;;;;;;;10.37;2.73;;;11.10;99.90;;;;;;5076411;28;20603;-96
2022/10/21 12:31:00;;;;;;;8.10;2.27;;;11.10;99.90;;;;;;5060098;28;20218;-96
2022/10/21 12:33:39;;;;;;;16.57;3.53;;;11.10;99.90;;;;;;5043148;28;20241;-96
2022/10/21 12:36:38;;;;;;;12.50;2.90;;;11.10;99.90;;;;;;5059614;28;20299;-96
2022/10/21 12:39:17;;;;;;;13.93;3.00;;;11.10;99.90;;;;;;5062051;28;20211;-96
2022/10/21 12:41:49;;;;;;;20.40;3.40;;;11.10;99.90;;;;;;5043368;28;20200;-96
2022/10/21 12:44:25;;;;;;;13.83;3.37;;;11.10;99.90;;;;;;5076244;28;20246;-96
2022/10/21 12:47:10;;;;;;;19.63;4.10;;;11.10;99.90;;;;;;5059158;28;20223;-95
2022/10/21 12:49:47;;;;;;;14.23;3.60;;;11.00;99.90;;;;;;5076496;28;20180;-96
2022/10/21 12:52:26;;;;;;;13.73;3.30;;;11.10;99.90;;;;;;5056537;28;20235;-96
2022/10/21 12:55:00;;;;;;;13.50;3.40;;;11.00;99.90;;;;;;5074494;28;20227;-95
2022/10/21 12:57:38;;;;;;;19.40;3.43;;;11.00;99.90;;;;;;5091316;28;20209;-96
2022/10/21 13:04:24;;;;;;;14.57;3.43;;;10.90;99.90;;;;;;5033849;28;20188;-95
2022/10/21 13:07:34;;;;;;;10.33;3.30;;;10.90;99.90;;;;;;5104766;28;20191;-96
2022/10/21 13:10:26;;;;;;;14.00;3.40;;;10.90;99.90;;;;;;5121359;28;20220;-96
2022/10/21 13:13:30;;;;;;;19.73;3.20;;;11.00;99.90;;;;;;5120796;28;20214;-96
2022/10/21 13:16:30;;;;;;;15.63;3.30;;;10.90;99.90;;;;;;5120400;28;20191;-96
2022/10/21 13:19:04;;;;;;;15.87;3.53;;;11.00;99.90;;;;;;5099442;28;20184;-96
2022/10/21 13:21:51;;;;;;;13.03;3.00;;;11.00;99.90;;;;;;5100025;28;20195;-96
2022/10/21 13:24:37;;;;;;;14.27;3.60;;;10.90;99.90;;;;;;5087567;28;20224;-95
2022/10/21 13:30:33;;;;;;;15.87;3.53;;;10.80;99.90;;;;;;5070791;28;20203;-96